Time;durP1;ratioP1;P1;durP2;ratioP2;P2;SDS_P1;SDS_P2;PMS_P1;PMS_P2;Temp;Humidity;BMP_temperature;BMP_pressure;BME280_temperature;BME280_humidity;BME280_pressure;Samples;Min_cycle;Max_cycle;Signal;HPM_P1;HPM_P2
2024/01/04 00:00:11;;;;;;;;;4.00;1.00;;;;;-144.24;100.00;55255.72;5028967;28;65578;-71
2024/01/04 00:02:36;;;;;;;;;2.00;0.00;;;;;-144.24;100.00;55462.50;5041265;28;45887;-70
2024/01/04 00:05:03;;;;;;;;;1.00;1.00;;;;;-144.24;100.00;55801.81;5043153;28;45520;-72
2024/01/04 00:07:28;;;;;;;;;4.33;1.00;;;;;-144.24;100.00;56092.97;5048686;28;45471;-70
2024/01/04 00:09:54;;;;;;;;;0.00;0.00;;;;;-144.24;100.00;56504.66;5054671;28;62318;-72
2024/01/04 00:12:19;;;;;;;;;3.33;1.00;;;;;-144.24;100.00;56994.69;5046686;28;73045;-73
2024/01/04 00:14:44;;;;;;;;;0.00;0.00;;;;;-144.24;100.00;57466.72;5037348;28;45453;-72
2024/01/04 00:17:10;;;;;;;;;6.33;0.00;;;;;-144.24;100.00;57930.75;5040326;28;62844;-73
2024/01/04 00:19:35;;;;;;;;;0.00;0.00;;;;;-144.24;100.00;58557.63;5041116;28;61236;-73
2024/01/04 00:22:01;;;;;;;;;1.33;1.00;;;;;-144.24;100.00;58812.81;5041812;28;70420;-71
2024/01/04 00:24:26;;;;;;;;;0.33;0.33;;;;;-144.24;100.00;59053.94;5043965;28;45330;-72
2024/01/04 00:26:51;;;;;;;;;1.00;1.00;;;;;-144.24;100.00;59250.88;5043932;28;45477;-71
2024/01/04 00:29:16;;;;;;;;;1.00;1.00;;;;;-144.24;100.00;59319.22;5050219;28;62948;-72
2024/01/04 00:31:42;;;;;;;;;1.00;1.00;;;;;-144.24;100.00;59449.84;5038072;28;70713;-72
2024/01/04 00:34:08;;;;;;;;;4.33;0.67;;;;;-144.24;100.00;59731.22;5057049;28;45396;-70
2024/01/04 00:36:33;;;;;;;;;0.00;0.00;;;;;-144.24;100.00;59829.69;5040676;28;45532;-70
2024/01/04 00:38:59;;;;;;;;;7.00;0.67;;;;;-144.24;100.00;60008.59;5021630;28;45493;-70
2024/01/04 00:41:24;;;;;;;;;1.00;1.00;;;;;-144.24;100.00;59902.06;5040417;28;45810;-71
2024/01/04 00:43:50;;;;;;;;;2.00;1.00;;;;;-144.24;100.00;59873.91;5040502;28;45430;-72
2024/01/04 00:46:15;;;;;;;;;1.00;1.00;;;;;-144.24;100.00;59996.53;5042118;28;60219;-74
2024/01/04 00:48:40;;;;;;;;;3.00;0.00;;;;;-144.24;100.00;60038.75;5044975;28;45654;-71
2024/01/04 00:51:06;;;;;;;;;3.67;0.67;;;;;-144.24;100.00;60030.69;5044239;28;56978;-70
2024/01/04 00:53:32;;;;;;;;;1.00;1.00;;;;;-144.24;100.00;59857.84;5048912;28;45955;-73
2024/01/04 00:55:57;;;;;;;;;2.00;0.67;;;;;-144.24;100.00;59902.06;5046624;28;45969;-70
2024/01/04 00:58:23;;;;;;;;;8.00;0.00;;;;;-144.24;100.00;59821.66;5049887;28;52661;-70
2024/01/04 01:00:48;;;;;;;;;1.67;1.00;;;;;-144.24;100.00;59883.97;5046129;28;45597;-72
2024/01/04 01:03:13;;;;;;;;;8.00;0.67;;;;;-144.24;100.00;59906.06;5044241;28;62790;-70
2024/01/04 01:05:39;;;;;;;;;3.00;1.00;;;;;-144.24;100.00;59944.28;5046593;28;63703;-70
2024/01/04 01:08:05;;;;;;;;;3.67;1.00;;;;;-144.24;100.00;59769.41;5053184;28;45476;-70
2024/01/04 01:10:32;;;;;;;;;2.00;1.00;;;;;-144.24;100.00;59869.91;5053792;28;46902;-71
2024/01/04 01:12:57;;;;;;;;;4.33;1.33;;;;;-144.24;100.00;59932.22;5039259;28;45327;-70
2024/01/04 01:15:22;;;;;;;;;3.00;0.00;;;;;-144.24;100.00;59992.50;5040935;28;45365;-69
2024/01/04 01:17:48;;;;;;;;;1.67;0.00;;;;;-144.24;100.00;60163.38;5039952;28;61381;-72
2024/01/04 01:20:13;;;;;;;;;1.00;0.00;;;;;-144.24;100.00;60181.47;5040174;28;59624;-71
2024/01/04 01:22:38;;;;;;;;;1.33;0.67;;;;;-144.24;100.00;60370.41;5041159;28;45469;-72
2024/01/04 01:25:04;;;;;;;;;2.00;1.00;;;;;-144.24;100.00;60563.41;5043228;28;45397;-70
2024/01/04 01:27:29;;;;;;;;;1.67;1.00;;;;;-144.24;100.00;60838.81;5046459;28;45520;-72
2024/01/04 01:29:55;;;;;;;;;3.00;1.00;;;;;-144.24;100.00;60774.47;5045253;28;45266;-71
2024/01/04 01:32:20;;;;;;;;;3.33;1.00;;;;;-144.24;100.00;60818.72;5044207;28;45496;-73
2024/01/04 01:34:45;;;;;;;;;7.00;3.67;;;;;-144.24;100.00;61007.69;5039581;28;45259;-72
2024/01/04 01:37:11;;;;;;;;;2.00;0.00;;;;;-144.24;100.00;61074.03;5043425;28;45484;-70
2024/01/04 01:39:36;;;;;;;;;2.00;0.00;;;;;-144.24;100.00;61080.06;5020220;28;47395;-70
2024/01/04 01:42:02;;;;;;;;;1.00;1.00;;;;;-144.24;100.00;61094.16;5044795;28;65866;-70
2024/01/04 01:44:27;;;;;;;;;2.00;1.00;;;;;-144.24;100.00;61134.38;5038498;28;45530;-73
2024/01/04 01:46:52;;;;;;;;;1.33;1.00;;;;;-144.24;100.00;61210.75;5046766;28;61838;-71
2024/01/04 01:49:18;;;;;;;;;4.00;1.00;;;;;-144.24;100.00;61242.94;5039012;28;70453;-71
2024/01/04 01:51:43;;;;;;;;;2.33;1.00;;;;;-144.24;100.00;61452.06;5041350;28;69213;-70
2024/01/04 01:54:09;;;;;;;;;0.00;0.00;;;;;-144.24;100.00;61373.63;5040566;28;56491;-72
2024/01/04 01:56:35;;;;;;;;;3.33;0.33;;;;;-144.24;100.00;61425.91;5046128;28;57340;-71
2024/01/04 01:59:01;;;;;;;;;1.33;1.00;;;;;-144.24;100.00;61212.78;5025273;28;46191;-73
2024/01/04 02:01:27;;;;;;;;;1.00;0.00;;;;;-144.24;100.00;61257.00;5048339;28;45384;-70
2024/01/04 02:03:52;;;;;;;;;0.67;0.00;;;;;-144.24;100.00;61273.09;5045459;28;45209;-73
2024/01/04 02:06:17;;;;;;;;;1.00;1.00;;;;;-144.24;100.00;61212.78;5033640;28;45261;-71
2024/01/04 02:08:46;;;;;;;;;3.00;0.00;;;;;-144.24;100.00;61116.28;5049800;28;71765;-72
2024/01/04 02:11:11;;;;;;;;;0.67;0.00;;;;;-144.24;100.00;61506.34;5036761;28;45521;-71
2024/01/04 02:13:37;;;;;;;;;1.67;1.00;;;;;-144.24;100.00;61413.84;5041572;28;45373;-71
2024/01/04 02:16:02;;;;;;;;;1.67;1.00;;;;;-144.24;100.00;61610.91;5043381;28;45428;-71
2024/01/04 02:18:28;;;;;;;;;0.67;0.67;;;;;-144.24;100.00;61502.31;5020222;28;46319;-70
2024/01/04 02:20:53;;;;;;;;;3.00;0.00;;;;;-144.24;100.00;61510.38;5045168;28;45864;-70
2024/01/04 02:23:18;;;;;;;;;1.67;0.67;;;;;-144.24;100.00;61594.81;5037807;28;65476;-70
2024/01/04 02:25:44;;;;;;;;;1.67;1.00;;;;;-144.24;100.00;61661.19;5041357;28;45324;-71
2024/01/04 02:28:09;;;;;;;;;2.00;0.00;;;;;-144.24;100.00;61703.41;5039910;28;68510;-73
2024/01/04 02:30:34;;;;;;;;;1.00;1.00;;;;;-144.24;100.00;61753.69;5044113;28;45486;-73
2024/01/04 02:33:00;;;;;;;;;0.33;0.00;;;;;-144.24;100.00;61807.97;5042812;28;67506;-72
2024/01/04 02:35:26;;;;;;;;;2.00;0.00;;;;;-144.24;100.00;61876.34;5046852;28;45709;-70
2024/01/04 02:37:52;;;;;;;;;3.33;1.00;;;;;-144.24;100.00;62065.38;5043370;28;46165;-73
2024/01/04 02:40:18;;;;;;;;;1.00;1.00;;;;;-144.24;100.00;62079.44;5026963;28;45467;-72
2024/01/04 02:45:18;;;;;;;;;0.33;0.00;;;;;-144.24;100.00;61956.78;5054300;22;45373;-71
2024/01/04 02:47:44;;;;;;;;;1.00;0.00;;;;;-144.24;100.00;62431.41;5062293;28;58193;-70
2024/01/04 02:50:09;;;;;;;;;7.33;0.00;;;;;-144.24;100.00;62753.22;5075579;28;45360;-69
2024/01/04 02:52:34;;;;;;;;;3.33;1.00;;;;;-144.24;100.00;62940.28;5060770;28;45375;-72
2024/01/04 02:55:00;;;;;;;;;2.00;0.00;;;;;-144.24;100.00;63316.47;5042033;28;54673;-71
2024/01/04 02:57:25;;;;;;;;;1.33;0.00;;;;;-144.24;100.00;63497.50;5040840;28;73616;-71
2024/01/04 02:59:50;;;;;;;;;0.33;0.00;;;;;-144.24;100.00;63710.78;5063566;28;69891;-69
2024/01/04 03:02:16;;;;;;;;;0.33;0.33;;;;;-144.24;100.00;63920.00;5060556;28;59656;-71
2024/01/04 03:04:42;;;;;;;;;0.33;0.33;;;;;-144.24;100.00;64028.66;5068052;28;45373;-72
2024/01/04 03:07:08;;;;;;;;;2.33;1.00;;;;;-144.24;100.00;64181.59;5057989;28;45467;-71
2024/01/04 03:09:33;;;;;;;;;0.00;0.00;;;;;-144.24;100.00;64219.81;5061263;28;45512;-73
2024/01/04 03:11:59;;;;;;;;;5.00;0.00;;;;;-144.24;100.00;64256.03;5067793;28;45388;-74
2024/01/04 03:14:24;;;;;;;;;1.33;0.00;;;;;-144.24;100.00;64427.06;5071660;28;50454;-71
2024/01/04 03:16:49;;;;;;;;;0.00;0.00;;;;;-144.24;100.00;64402.91;5072502;28;72127;-68
2024/01/04 03:19:14;;;;;;;;;3.00;0.00;;;;;-144.24;100.00;64515.63;5058706;28;71132;-71
2024/01/04 03:21:40;;;;;;;;;1.00;1.00;;;;;-144.24;100.00;64465.31;5065981;28;66504;-71
2024/01/04 03:24:05;;;;;;;;;2.00;0.67;;;;;-144.24;100.00;64445.19;5072555;28;57485;-72
2024/01/04 03:26:31;;;;;;;;;5.00;0.00;;;;;-144.24;100.00;64402.91;5051998;28;45602;-74
2024/01/04 03:28:56;;;;;;;;;3.00;0.00;;;;;-144.24;100.00;64294.25;5056943;28;45393;-71
2024/01/04 03:31:22;;;;;;;;;4.67;0.33;;;;;-144.24;100.00;64294.25;5058426;28;45576;-71
2024/01/04 03:33:49;;;;;;;;;8.00;1.00;;;;;-144.24;100.00;64336.53;5061093;28;56430;-73
2024/01/04 03:36:15;;;;;;;;;0.00;0.00;;;;;-144.24;100.00;64195.66;5056968;28;46761;-71
2024/01/04 03:38:40;;;;;;;;;2.00;1.00;;;;;-144.24;100.00;64382.81;5060098;28;45480;-71
2024/01/04 03:41:05;;;;;;;;;2.00;0.67;;;;;-144.24;100.00;64573.97;5043478;28;45490;-71
2024/01/04 03:43:31;;;;;;;;;0.00;0.00;;;;;-144.24;100.00;64795.34;5064013;28;45237;-72
2024/01/04 03:45:56;;;;;;;;;3.67;0.00;;;;;-144.24;100.00;65197.84;5055515;28;46042;-72
2024/01/04 03:48:22;;;;;;;;;4.67;1.00;;;;;-144.24;100.00;65469.56;5062205;28;72739;-71
2024/01/04 03:50:47;;;;;;;;;1.67;0.00;;;;;-144.24;100.00;65757.41;5040686;28;45393;-72
2024/01/04 03:53:12;;;;;;;;;2.33;1.00;;;;;-144.24;100.00;65872.13;5057519;28;52117;-74
2024/01/04 03:55:38;;;;;;;;;4.00;0.67;;;;;-144.24;100.00;66065.38;5058576;28;45697;-71
2024/01/04 03:58:03;;;;;;;;;1.00;0.67;;;;;-144.24;100.00;66131.81;5061797;28;66938;-72
2024/01/04 04:00:29;;;;;;;;;0.00;0.00;;;;;-144.24;100.00;66210.34;5057942;28;45616;-72
2024/01/04 04:02:54;;;;;;;;;1.00;0.00;;;;;-144.24;100.00;66774.06;5045612;28;63029;-71
2024/01/04 04:05:19;;;;;;;;;0.00;0.00;;;;;-144.24;100.00;68123.28;5060975;28;45374;-72
2024/01/04 04:07:44;;;;;;;;;4.00;0.00;;;;;-144.24;100.00;69017.66;5062739;28;70888;-73
2024/01/04 04:10:10;;;;;;;;;3.33;0.00;;;;;-144.24;100.00;69531.41;5061189;28;45400;-72
2024/01/04 04:12:35;;;;;;;;;0.67;0.00;;;;;-144.24;100.00;69853.81;5069130;28;65717;-71
2024/01/04 04:15:00;;;;;;;;;1.33;0.00;;;;;-144.24;100.00;70363.63;5068109;28;60398;-72
2024/01/04 04:17:26;;;;;;;;;3.00;0.00;;;;;-144.24;100.00;70774.75;5069174;28;64809;-70
2024/01/04 04:19:52;;;;;;;;;0.00;0.00;;;;;-144.24;100.00;71026.72;5055596;28;45914;-70
2024/01/04 04:22:17;;;;;;;;;4.33;0.67;;;;;-144.24;100.00;70976.31;5069001;28;45393;-71
2024/01/04 04:24:42;;;;;;;;;4.00;1.00;;;;;-144.24;100.00;71192.00;5067034;28;45752;-73
2024/01/04 04:27:08;;;;;;;;;1.33;1.33;;;;;-144.24;100.00;71476.22;5058910;28;64992;-71
2024/01/04 04:29:33;;;;;;;;;2.67;0.00;;;;;-144.24;100.00;71577.00;5059193;28;64761;-73
2024/01/04 04:31:58;;;;;;;;;4.67;2.00;;;;;-144.24;100.00;71728.19;5060373;28;55092;-72
2024/01/04 04:34:24;;;;;;;;;4.00;0.00;;;;;-144.24;100.00;71734.25;5059837;28;72526;-72
2024/01/04 04:36:49;;;;;;;;;1.00;1.00;;;;;-144.24;100.00;71772.53;5067538;28;45239;-74
2024/01/04 04:39:14;;;;;;;;;2.00;1.00;;;;;-144.24;100.00;71818.91;5059646;28;51464;-74
2024/01/04 04:41:40;;;;;;;;;2.00;0.67;;;;;-144.24;100.00;71415.75;5057665;28;59712;-74
2024/01/04 04:44:06;;;;;;;;;4.00;1.00;;;;;-144.24;100.00;71117.41;5057585;28;51348;-70
2024/01/04 04:46:31;;;;;;;;;0.33;0.33;;;;;-144.24;100.00;70994.47;5038811;28;46656;-71
2024/01/04 04:48:57;;;;;;;;;2.33;0.00;;;;;-144.24;100.00;70917.88;5063284;28;46181;-71
2024/01/04 04:51:23;;;;;;;;;0.67;0.00;;;;;-144.24;100.00;71143.63;5056680;28;45294;-71
2024/01/04 04:53:48;;;;;;;;;1.00;0.00;;;;;-144.24;100.00;71054.94;5064044;28;46392;-72
2024/01/04 04:56:13;;;;;;;;;4.33;1.00;;;;;-144.24;100.00;70980.34;5063844;28;45477;-70
2024/01/04 04:58:39;;;;;;;;;3.00;0.00;;;;;-144.24;100.00;71010.59;5043877;28;63227;-72
2024/01/04 05:01:04;;;;;;;;;2.00;1.00;;;;;-144.24;100.00;70915.84;5066847;28;45300;-74
2024/01/04 05:03:30;;;;;;;;;4.67;1.00;;;;;-144.24;100.00;70934.00;5059868;28;70606;-72
2024/01/04 05:05:55;;;;;;;;;1.00;0.00;;;;;-144.24;100.00;70970.28;5064206;28;45289;-72
2024/01/04 05:08:20;;;;;;;;;0.00;0.00;;;;;-144.24;100.00;70970.28;5071226;28;67612;-73
2024/01/04 05:10:46;;;;;;;;;1.67;0.00;;;;;-144.24;100.00;70968.25;5046329;28;63425;-74
2024/01/04 05:13:11;;;;;;;;;6.00;0.67;;;;;-144.24;100.00;70859.41;5058504;28;54139;-72
2024/01/04 05:15:37;;;;;;;;;3.00;2.00;;;;;-144.24;100.00;70954.16;5060877;28;45409;-71
2024/01/04 05:18:02;;;;;;;;;2.00;2.00;;;;;-144.24;100.00;71077.09;5058811;28;63838;-73
2024/01/04 05:20:27;;;;;;;;;5.00;0.00;;;;;-144.24;100.00;70927.94;5061979;28;45420;-74
2024/01/04 05:22:53;;;;;;;;;1.33;1.33;;;;;-144.24;100.00;71028.72;5065980;28;46231;-72
2024/01/04 05:25:18;;;;;;;;;1.33;1.33;;;;;-144.24;100.00;70956.16;5062696;28;69343;-73
2024/01/04 05:27:44;;;;;;;;;2.33;1.00;;;;;-144.24;100.00;71097.25;5070061;28;45433;-72
2024/01/04 05:30:12;;;;;;;;;3.00;0.00;;;;;-144.24;100.00;70972.28;5065537;28;46633;-71
2024/01/04 05:32:37;;;;;;;;;6.00;2.00;;;;;-144.24;100.00;70883.59;5066072;28;45410;-70
2024/01/04 05:35:03;;;;;;;;;2.00;1.00;;;;;-144.24;100.00;70792.91;5049001;28;45521;-73
2024/01/04 05:37:29;;;;;;;;;5.00;0.67;;;;;-144.24;100.00;70843.28;5069908;28;45527;-72
2024/01/04 05:39:54;;;;;;;;;2.00;0.67;;;;;-144.24;100.00;70958.19;5043864;28;62408;-71
2024/01/04 05:42:19;;;;;;;;;3.00;1.00;;;;;-144.24;100.00;71032.75;5056830;28;72803;-71
2024/01/04 05:44:45;;;;;;;;;2.00;1.00;;;;;-144.24;100.00;70996.47;5057639;28;45478;-72
2024/01/04 05:47:10;;;;;;;;;7.00;1.33;;;;;-144.24;100.00;70998.50;5044309;28;45496;-71
2024/01/04 05:49:36;;;;;;;;;3.33;1.00;;;;;-144.24;100.00;71044.84;5060046;28;56918;-72
2024/01/04 05:52:02;;;;;;;;;5.67;0.00;;;;;-144.24;100.00;71079.13;5063957;28;45590;-72
2024/01/04 05:54:27;;;;;;;;;0.00;0.00;;;;;-144.24;100.00;70954.16;5057505;28;45537;-73
2024/01/04 05:56:53;;;;;;;;;4.33;1.00;;;;;-144.24;100.00;71026.72;5044624;28;47694;-72
2024/01/04 05:59:18;;;;;;;;;2.00;0.00;;;;;-144.24;100.00;71073.06;5063765;28;63928;-72
2024/01/04 06:01:43;;;;;;;;;4.00;1.00;;;;;-144.24;100.00;71115.41;5067852;27;46618;-71
2024/01/04 06:04:09;;;;;;;;;0.33;0.33;;;;;-144.24;100.00;71093.22;5066009;28;45843;-72
2024/01/04 06:06:34;;;;;;;;;3.67;1.00;;;;;-144.24;100.00;71153.69;5073808;28;62797;-72
2024/01/04 06:08:59;;;;;;;;;5.00;2.00;;;;;-144.24;100.00;71218.19;5061380;28;45570;-72
2024/01/04 06:11:25;;;;;;;;;3.00;1.00;;;;;-144.24;100.00;71129.50;5072447;27;46463;-72
2024/01/04 06:13:50;;;;;;;;;2.33;1.00;;;;;-144.24;100.00;71012.59;5069317;28;64572;-70
2024/01/04 06:16:17;;;;;;;;;1.00;1.00;;;;;-144.24;100.00;70712.28;5057197;28;67446;-71
2024/01/04 06:18:42;;;;;;;;;3.67;0.00;;;;;-144.24;100.00;70331.38;5058645;28;45558;-71
2024/01/04 06:21:08;;;;;;;;;2.33;0.33;;;;;-144.24;100.00;69984.78;5068949;28;73517;-71
2024/01/04 06:23:33;;;;;;;;;2.00;0.00;;;;;-144.24;100.00;69475.00;5056406;28;68420;-71
2024/01/04 06:25:59;;;;;;;;;2.00;1.00;;;;;-144.24;100.00;69410.53;5059090;28;66572;-71
2024/01/04 06:28:24;;;;;;;;;3.67;0.67;;;;;-144.24;100.00;69021.69;5059105;28;45324;-71
2024/01/04 06:30:50;;;;;;;;;2.00;0.00;;;;;-144.24;100.00;68661.09;5055475;28;45846;-71
2024/01/04 06:33:16;;;;;;;;;2.67;0.00;;;;;-144.24;100.00;68463.69;5057437;28;45294;-72
2024/01/04 06:35:42;;;;;;;;;4.33;1.00;;;;;-144.24;100.00;68217.97;5050355;28;45540;-71
2024/01/04 06:38:08;;;;;;;;;4.00;1.00;;;;;-144.24;100.00;68437.50;5064455;28;45419;-71
2024/01/04 06:40:37;;;;;;;;;1.67;0.00;;;;;-144.24;100.00;68103.16;5076827;28;46311;-70
2024/01/04 06:43:03;;;;;;;;;2.00;1.00;;;;;-144.24;100.00;67948.06;5054099;28;45432;-72
2024/01/04 06:45:32;;;;;;;;;0.33;0.33;;;;;-144.24;100.00;67859.44;5057318;28;45405;-72
2024/01/04 06:47:57;;;;;;;;;0.33;0.33;;;;;-144.24;100.00;67778.91;5058040;28;45448;-71
2024/01/04 06:50:22;;;;;;;;;3.33;1.00;;;;;-144.24;100.00;67960.16;5042818;28;46395;-72
2024/01/04 06:52:48;;;;;;;;;2.00;0.33;;;;;-144.24;100.00;67805.06;5062591;28;45386;-72
2024/01/04 06:55:14;;;;;;;;;1.67;1.00;;;;;-144.24;100.00;67633.88;5062741;28;45370;-72
2024/01/04 06:57:39;;;;;;;;;1.67;0.67;;;;;-144.24;100.00;67635.91;5063459;28;45511;-71
2024/01/04 07:00:07;;;;;;;;;1.33;0.33;;;;;-144.24;100.00;67654.03;5063501;27;46780;-72
2024/01/04 07:02:35;;;;;;;;;1.00;0.00;;;;;-144.24;100.00;67484.88;5062003;28;45409;-72
2024/01/04 07:05:03;;;;;;;;;3.00;0.00;;;;;-144.24;100.00;67271.41;5069826;28;45322;-71
2024/01/04 07:07:30;;;;;;;;;1.33;0.67;;;;;-144.24;100.00;67219.06;5058978;28;45607;-71
2024/01/04 07:09:55;;;;;;;;;0.00;0.00;;;;;-144.24;100.00;67076.09;5065252;28;45685;-73
2024/01/04 07:12:20;;;;;;;;;4.00;1.00;;;;;-144.24;100.00;67156.63;5068222;28;45480;-72
2024/01/04 07:14:46;;;;;;;;;0.67;0.00;;;;;-144.24;100.00;66981.44;5060037;28;45497;-74
2024/01/04 07:17:13;;;;;;;;;2.00;0.00;;;;;-144.24;100.00;67001.59;5038043;28;46465;-73
2024/01/04 07:19:41;;;;;;;;;2.00;0.67;;;;;-144.24;100.00;66691.50;5062112;28;46449;-73
2024/01/04 07:22:06;;;;;;;;;2.67;0.33;;;;;-144.24;100.00;66844.53;5035586;28;45545;-73
2024/01/04 07:24:32;;;;;;;;;4.00;1.00;;;;;-144.24;100.00;66947.22;5058442;28;65113;-74
2024/01/04 07:26:57;;;;;;;;;3.00;1.33;;;;;-144.24;100.00;67021.72;5060776;28;45281;-73
2024/01/04 07:29:23;;;;;;;;;1.67;0.00;;;;;-144.24;100.00;67172.75;5063089;28;45984;-73
2024/01/04 07:31:49;;;;;;;;;3.00;1.00;;;;;-144.24;100.00;67273.44;5055672;28;45451;-71
2024/01/04 07:34:14;;;;;;;;;1.00;1.00;;;;;-144.24;100.00;67358.00;5056017;28;45292;-70
2024/01/04 07:36:39;;;;;;;;;2.00;0.67;;;;;-144.24;100.00;67323.75;5053652;28;61070;-70
2024/01/04 07:39:05;;;;;;;;;5.33;0.00;;;;;-144.24;100.00;67263.34;5052627;28;71534;-70
2024/01/04 07:41:30;;;;;;;;;2.00;2.00;;;;;-144.24;100.00;67317.72;5051463;28;66564;-70
2024/01/04 07:43:56;;;;;;;;;2.67;1.33;;;;;-144.24;100.00;67390.22;5050152;28;45544;-69
2024/01/04 07:46:21;;;;;;;;;2.00;1.00;;;;;-144.24;100.00;67434.53;5053220;28;45571;-70
2024/01/04 07:48:46;;;;;;;;;3.33;1.33;;;;;-144.24;100.00;67462.72;5052929;28;46269;-70
2024/01/04 07:51:11;;;;;;;;;1.33;1.00;;;;;-144.24;100.00;67503.00;5053387;28;60446;-70
2024/01/04 07:53:37;;;;;;;;;6.00;0.00;;;;;-144.24;100.00;67486.88;5053088;28;65923;-70
2024/01/04 07:56:02;;;;;;;;;1.67;1.67;;;;;-144.24;100.00;67382.16;5053745;28;45268;-70
2024/01/04 07:58:28;;;;;;;;;7.00;0.00;;;;;-144.24;100.00;67378.13;5052595;28;46263;-70
2024/01/04 08:00:53;;;;;;;;;2.00;0.67;;;;;-144.24;100.00;67327.78;5052155;28;71896;-70
2024/01/04 08:03:18;;;;;;;;;3.67;1.00;;;;;-144.24;100.00;67154.63;5052616;28;52011;-73
2024/01/04 08:05:44;;;;;;;;;1.33;1.00;;;;;-144.24;100.00;67094.22;5052562;28;57094;-72
2024/01/04 08:08:09;;;;;;;;;2.00;2.00;;;;;-144.24;100.00;66951.25;5051546;28;47225;-71
2024/01/04 08:10:34;;;;;;;;;5.67;3.00;;;;;-144.24;100.00;66915.00;5053157;28;45717;-72
2024/01/04 08:13:00;;;;;;;;;6.00;1.00;;;;;-144.24;100.00;66689.50;5053699;28;60908;-72
2024/01/04 08:15:25;;;;;;;;;2.67;1.00;;;;;-144.24;100.00;66490.16;5051671;28;45463;-73
2024/01/04 08:17:50;;;;;;;;;1.67;1.33;;;;;-144.24;100.00;66423.72;5048100;28;71907;-71
2024/01/04 08:20:18;;;;;;;;;2.33;1.00;;;;;-144.24;100.00;66375.41;5048672;28;71650;-72
2024/01/04 08:22:43;;;;;;;;;7.00;1.00;;;;;-144.24;100.00;66266.69;5052706;28;45583;-72
2024/01/04 08:25:09;;;;;;;;;4.00;1.00;;;;;-144.24;100.00;66214.34;5050549;28;60800;-75
2024/01/04 08:27:34;;;;;;;;;2.67;2.00;;;;;-144.24;100.00;66123.75;5029165;28;48315;-72
2024/01/04 08:29:59;;;;;;;;;5.33;1.00;;;;;-144.24;100.00;66119.75;5045701;28;62975;-72
2024/01/04 08:32:25;;;;;;;;;3.00;0.67;;;;;-144.24;100.00;66115.72;5048626;28;57267;-72
2024/01/04 08:34:50;;;;;;;;;3.00;1.00;;;;;-144.24;100.00;66170.06;5051026;28;65704;-72
2024/01/04 08:37:18;;;;;;;;;4.00;1.00;;;;;-144.24;100.00;66105.66;5055207;28;47979;-72
2024/01/04 08:39:43;;;;;;;;;6.00;0.00;;;;;-144.24;100.00;66067.41;5056990;28;45741;-73
2024/01/04 08:42:09;;;;;;;;;1.00;1.00;;;;;-144.24;100.00;65856.03;5056909;28;45650;-72
2024/01/04 08:44:34;;;;;;;;;2.00;2.00;;;;;-144.24;100.00;65868.09;5056722;28;46026;-72
2024/01/04 08:46:59;;;;;;;;;1.00;1.00;;;;;-144.24;100.00;65874.16;5050701;28;67576;-72
2024/01/04 08:49:25;;;;;;;;;2.00;1.00;;;;;-144.24;100.00;65747.34;5049037;28;64193;-72
2024/01/04 08:51:50;;;;;;;;;2.67;1.00;;;;;-144.24;100.00;65626.56;5050785;28;45431;-72
2024/01/04 08:54:15;;;;;;;;;1.33;1.00;;;;;-144.24;100.00;65721.16;5050738;28;61720;-71
2024/01/04 08:56:40;;;;;;;;;3.33;2.00;;;;;-144.24;100.00;65850.00;5050331;28;46476;-71
2024/01/04 08:59:06;;;;;;;;;3.67;3.67;;;;;-144.24;100.00;65874.16;5051141;28;68934;-71
2024/01/04 09:01:31;;;;;;;;;3.33;1.00;;;;;-144.24;100.00;65839.94;5051849;28;55814;-71
2024/01/04 09:03:57;;;;;;;;;2.33;1.00;;;;;-144.24;100.00;65956.69;5057210;28;45482;-71
2024/01/04 09:06:22;;;;;;;;;6.00;2.00;;;;;-144.24;100.00;65986.88;5056274;28;46369;-71
2024/01/04 09:08:48;;;;;;;;;3.67;1.00;;;;;-144.24;100.00;65799.66;5038723;28;45435;-73
2024/01/04 09:11:15;;;;;;;;;2.00;1.00;;;;;-144.24;100.00;65628.56;5037662;28;45501;-72
2024/01/04 09:13:44;;;;;;;;;7.00;2.00;;;;;-144.24;100.00;65880.19;5056574;28;45421;-72
2024/01/04 09:16:09;;;;;;;;;10.67;1.00;;;;;-144.24;100.00;65735.25;5053726;28;46619;-71
2024/01/04 09:18:35;;;;;;;;;0.33;0.33;;;;;-144.24;100.00;65616.50;5034411;28;46241;-71
2024/01/04 09:21:01;;;;;;;;;6.67;2.00;;;;;-144.24;100.00;65843.94;5056634;28;45397;-71
2024/01/04 09:23:26;;;;;;;;;6.33;1.33;;;;;-144.24;100.00;65632.59;5055890;28;45654;-72
2024/01/04 09:25:51;;;;;;;;;7.33;2.00;;;;;-144.24;100.00;65656.75;5056036;28;70942;-74
2024/01/04 09:28:18;;;;;;;;;7.00;1.33;;;;;-144.24;100.00;65312.56;5056193;28;64046;-71
2024/01/04 09:30:44;;;;;;;;;3.67;1.67;;;;;-144.24;100.00;65562.16;5054760;28;46847;-73
2024/01/04 09:33:10;;;;;;;;;4.00;1.67;;;;;-144.24;100.00;65417.22;5038901;28;45398;-70
2024/01/04 09:35:36;;;;;;;;;4.00;1.00;;;;;-144.24;100.00;65598.38;5039365;28;45716;-71
2024/01/04 09:38:01;;;;;;;;;6.67;2.00;;;;;-144.24;100.00;65427.28;5053133;28;45503;-74
2024/01/04 09:40:27;;;;;;;;;4.33;2.67;;;;;-144.24;100.00;65378.97;5054664;28;45551;-74
2024/01/04 09:42:55;;;;;;;;;2.00;1.67;;;;;-144.24;100.00;65012.69;5055332;28;45322;-72
2024/01/04 09:45:22;;;;;;;;;4.33;2.00;;;;;-144.24;100.00;65054.94;5051947;28;47439;-71
2024/01/04 09:47:53;;;;;;;;;9.00;1.00;;;;;-144.24;100.00;64988.53;5055043;28;45452;-72
2024/01/04 09:50:19;;;;;;;;;8.67;3.00;;;;;-144.24;100.00;64736.97;5039274;28;45482;-71
2024/01/04 09:52:45;;;;;;;;;5.00;2.67;;;;;-144.24;100.00;64839.59;5035828;28;45366;-71
2024/01/04 09:55:12;;;;;;;;;7.67;1.67;;;;;-144.24;100.00;64906.03;5036345;28;47337;-73
2024/01/04 09:57:37;;;;;;;;;3.00;2.33;;;;;-144.24;100.00;64861.75;5049826;28;45485;-71
2024/01/04 10:00:04;;;;;;;;;6.00;2.00;;;;;-144.24;100.00;64789.28;5038644;28;45432;-73
2024/01/04 10:02:29;;;;;;;;;4.00;2.00;;;;;-144.24;100.00;64475.38;5057620;28;45487;-70
2024/01/04 10:04:57;;;;;;;;;7.67;2.00;;;;;-144.24;100.00;64324.44;5035170;28;46215;-71
2024/01/04 10:07:25;;;;;;;;;5.67;3.00;;;;;-144.24;100.00;64288.22;5037647;28;45386;-72
2024/01/04 10:09:59;;;;;;;;;1.33;1.33;;;;;-144.24;100.00;63873.75;5036320;28;45405;-71
2024/01/04 10:12:27;;;;;;;;;1.00;0.33;;;;;-144.24;100.00;63644.38;5038520;28;45471;-71
2024/01/04 10:14:53;;;;;;;;;5.67;2.67;;;;;-144.24;100.00;63907.94;5048526;28;45986;-72
2024/01/04 10:17:19;;;;;;;;;3.00;3.00;;;;;-144.24;100.00;63823.44;5055064;28;68519;-71
2024/01/04 10:19:45;;;;;;;;;5.00;3.00;;;;;-144.24;100.00;63837.53;5054417;28;45543;-71
2024/01/04 10:22:10;;;;;;;;;5.00;1.00;;;;;-144.24;100.00;63922.03;5035713;28;45582;-72
2024/01/04 10:24:37;;;;;;;;;6.67;4.33;;;;;-144.24;100.00;64117.19;5036946;28;58959;-71
2024/01/04 10:27:04;;;;;;;;;9.00;4.00;;;;;-144.24;100.00;64101.09;5055330;28;45449;-71
2024/01/04 10:29:31;;;;;;;;;3.00;1.00;;;;;-144.24;100.00;64133.28;5055122;28;45647;-72
2024/01/04 10:32:00;;;;;;;;;3.33;1.33;;;;;-144.24;100.00;64219.81;5055161;28;45755;-73
2024/01/04 10:34:26;;;;;;;;;2.33;2.33;;;;;-144.24;100.00;64402.91;5052564;28;47106;-70
2024/01/04 10:36:52;;;;;;;;;8.33;2.67;;;;;-144.24;100.00;64505.56;5055086;28;45578;-73
2024/01/04 10:39:20;;;;;;;;;7.67;2.00;;;;;-144.24;100.00;64745.03;5055590;28;45619;-71
2024/01/04 10:42:07;;;;;;;;;9.00;3.00;;;;;-144.24;100.00;64445.19;5052738;28;45560;-72
2024/01/04 10:44:35;;;;;;;;;10.00;4.67;;;;;-144.24;100.00;64936.22;5049268;28;45401;-72
2024/01/04 10:47:02;;;;;;;;;12.00;4.00;;;;;-144.24;100.00;64950.28;5051292;28;45324;-70
2024/01/04 10:49:28;;;;;;;;;8.67;3.00;;;;;-144.24;100.00;64893.94;5034651;28;45425;-70
2024/01/04 10:51:58;;;;;;;;;19.33;8.00;;;;;-144.24;100.00;64976.47;5054970;28;67529;-73
2024/01/04 10:54:31;;;;;;;;;6.67;3.00;;;;;-144.24;100.00;64728.91;5053692;28;47372;-71
2024/01/04 10:57:01;;;;;;;;;9.33;4.00;;;;;-144.24;100.00;64885.88;5055646;28;45619;-70
2024/01/04 10:59:30;;;;;;;;;5.67;2.00;;;;;-144.24;100.00;64815.47;5054778;28;45312;-71
2024/01/04 11:01:59;;;;;;;;;3.00;2.67;;;;;-144.24;100.00;64692.69;5057709;28;45600;-71
2024/01/04 11:04:25;;;;;;;;;4.00;3.00;;;;;-144.24;100.00;64857.72;5054976;28;46499;-70